Have a Safe July 4th! 

Flight Track Log - Related Links

Times and Time Zones

All times are in EDT time to prevent confusion due to time zone crossing. See the SWA2322 flight status page for this flight to view local times or setup timezone preferences in your user account.

Time Position Orientation Groundspeed Altitude Reporting Facility
EDT Latitude Longitude Course Direction KTS MPH feet Rate Location/Type
Tue 08:23:43 AM 33.0517 -79.9931 13° North 264 304 7,000  Level Jacksonville Center
Tue 08:24:43 AM 33.1283 -79.9681 15° North 270 311 10,900 3,300 Climbing Jacksonville Center
Tue 08:25:43 AM 33.2217 -79.9428 13° North 304 350 13,600 3,200 Climbing Jacksonville Center
Tue 08:26:43 AM 33.3172 -79.9147 14° North 335 386 17,300 3,150 Climbing Jacksonville Center
Tue 08:27:00 AM 33.4111 -79.8745 North  Level FlightAware Approximate
Tue 08:27:43 AM 33.4228 -79.8864 13° North 361 415 19,900  Level Jacksonville Center
Tue 08:28:00 AM 33.5003 -79.8523 13° North  Level FlightAware Approximate
Tue 08:28:43 AM 33.5267 -79.8581 13° North 373 429 22,800  Level Jacksonville Center
Tue 08:29:43 AM 33.6364 -79.8292 12° North 390 449 25,300 2,300 Climbing Jacksonville Center
Tue 08:30:43 AM 33.7503 -79.7953 14° North 405 466 27,400 2,100 Climbing Jacksonville Center
Tue 08:31:43 AM 33.8661 -79.7511 18° North 421 484 29,500 2,000 Climbing Jacksonville Center
Tue 08:32:43 AM 33.9681 -79.6550 38° Northeast 433 498 31,400 2,100 Climbing Jacksonville Center
Tue 08:33:43 AM 34.0656 -79.5536 41° Northeast 450 518 33,700 2,200 Climbing Jacksonville Center
Tue 08:34:43 AM 34.1608 -79.4544 41° Northeast 455 524 35,800 1,515 Climbing Jacksonville Center
Tue 08:36:57 AM 34.3772 -79.2306 40° Northeast 433 498 38,600 990 Climbing Washington Center
Tue 08:37:57 AM 34.4742 -79.1314 40° Northeast 445 512 39,000 -300 Climbing Washington Center
Tue 08:38:57 AM 34.5667 -79.0344 41° Northeast 445 512 38,000 -1,000 Descending Washington Center
Tue 08:39:57 AM 34.6569 -78.9425 40° Northeast 440 506 37,000 -950 Descending Washington Center
Tue 08:40:57 AM 34.7472 -78.8475 41° Northeast 434 499 36,100 -950 Descending Washington Center
Tue 08:41:57 AM 34.8375 -78.7525 41° Northeast 428 493 35,100 -550 Descending Washington Center
Tue 08:42:57 AM 34.9317 -78.6575 40° Northeast 428 493 35,000 -50 Descending Washington Center
Tue 08:43:57 AM 35.0131 -78.5692 42° Northeast 428 493 35,000 -450 Level Washington Center
Tue 08:44:57 AM 35.1053 -78.4711 41° Northeast 428 493 34,100 -950 Descending Washington Center
Tue 08:45:57 AM 35.1994 -78.3703 41° Northeast 433 498 33,100 -1,500 Descending Washington Center
Tue 08:46:57 AM 35.2936 -78.2717 41° Northeast 433 498 31,100 -1,050 Descending Washington Center
Tue 08:47:57 AM 35.3897 -78.1678 41° Northeast 443 510 31,000 -50 Descending Washington Center
Tue 08:48:57 AM 35.5017 -78.1050 25° Northeast 443 510 31,000 -150 Level Washington Center
Tue 08:49:57 AM 35.6194 -78.0603 17° North 431 496 30,700 -1,000 Descending Washington Center
Tue 08:50:57 AM 35.7392 -78.0181 16° North 436 502 29,000 -850 Descending Washington Center
Tue 08:51:57 AM 35.8569 -77.9728 17° North 436 502 29,000  Level Washington Center
Tue 08:52:57 AM 35.9747 -77.9275 17° North 436 502 29,000  Level Washington Center
Tue 08:53:57 AM 36.0903 -77.8847 17° North 442 509 29,000  Level Washington Center
Tue 08:54:57 AM 36.2103 -77.8367 18° North 442 509 29,000  Level Washington Center
Tue 08:55:57 AM 36.3300 -77.7886 18° North 442 509 29,000  Level Washington Center
Tue 08:56:57 AM 36.4478 -77.7403 18° North 442 509 29,000  Level Washington Center
Tue 08:57:57 AM 36.5717 -77.6944 17° North 447 514 29,000  Level Washington Center
Tue 08:58:57 AM 36.6914 -77.6461 18° North 447 514 29,000  Level Washington Center
Tue 08:59:57 AM 36.8131 -77.5972 18° North 447 514 29,000  Level Washington Center
Tue 09:00:57 AM 36.9392 -77.5486 17° North 452 520 29,000  Level Washington Center
Tue 09:01:57 AM 37.0611 -77.4969 19° North 452 520 29,000  Level Washington Center
Tue 09:02:57 AM 37.1828 -77.4531 16° North 452 520 29,000 -750 Level Washington Center
Tue 09:03:57 AM 37.3022 -77.4039 18° North 452 520 27,500 -2,100 Descending Washington Center
Tue 09:04:57 AM 37.4200 -77.3542 19° North 447 514 24,800 -2,250 Descending Washington Center
Tue 09:05:57 AM 37.5331 -77.3150 15° North 435 501 23,000 -900 Descending Washington Center
Tue 09:06:57 AM 37.6439 -77.2914 10° North 415 478 23,000  Level Washington Center
Tue 09:07:57 AM 37.7592 -77.2675 North 415 478 23,000  Level Washington Center
Tue 09:08:57 AM 37.8719 -77.2439 North 410 472 23,000  Level Washington Center
Tue 09:09:57 AM 37.9869 -77.2200 North 410 472 23,000 -950 Level Washington Center
Tue 09:10:57 AM 38.1103 -77.1936 10° North 410 472 21,100 -2,000 Descending Washington Center
Tue 09:11:57 AM 38.2067 -77.1719 10° North 405 466 19,000 -2,150 Descending Washington Center
Tue 09:12:57 AM 38.3133 -77.1503 North 398 458 16,800 -2,000 Descending Washington Center
Tue 09:13:57 AM 38.4097 -77.1047 20° North 386 444 15,000 -1,950 Descending Washington Center
Tue 09:14:57 AM 38.4839 -77.0158 43° Northeast 357 411 12,900 -1,600 Descending Washington Center
Tue 09:15:57 AM 38.5558 -76.9269 44° Northeast 357 411 11,800 -950 Descending Washington Center
Tue 09:16:57 AM 38.6150 -76.8511 45° Northeast 330 380 11,000 -1,000 Descending Washington Center
Tue 09:17:57 AM 38.6739 -76.7803 43° Northeast 303 349 9,800 -1,050 Descending Washington Center
Tue 09:18:57 AM 38.7228 -76.7011 52° Northeast 281 323 8,900 -1,329 Descending Washington Center
Tue 09:20:35 AM 38.8000 -76.5500 57° Northeast 297 342 6,300 -1,063 Descending Potomac TRACON
Tue 09:21:35 AM 38.8667 -76.5500 360° North 272 313 6,100 -347 Descending Potomac TRACON
Tue 09:22:36 AM 38.9333 -76.5833 339° North 271 312 5,600 -574 Descending Potomac TRACON
Tue 09:23:30 AM 38.9833 -76.6167 333° Northwest 245 282 5,000 -737 Descending Potomac TRACON
Tue 09:24:30 AM 39.0167 -76.6833 303° West 222 255 4,200 -450 Descending Potomac TRACON
Tue 09:25:30 AM 39.0500 -76.7500 303° West 218 251 4,100 -470 Descending Potomac TRACON
Tue 09:26:25 AM 39.0667 -76.8167 288° West 199 229 3,300 -522 Descending Potomac TRACON
Tue 09:27:25 AM 39.0833 -76.8833 288° West 192 221 3,100 -150 Descending Potomac TRACON
Tue 09:28:25 AM 39.1167 -76.9333 311° West 209 241 3,000 -50 Descending Potomac TRACON
Tue 09:29:25 AM 39.1667 -76.9167 14° North 216 249 3,000 -450 Level Potomac TRACON
Tue 09:30:25 AM 39.1833 -76.8500 72° East 181 208 2,100 -650 Descending Potomac TRACON
Tue 09:31:25 AM 39.1833 -76.7833 90° East 172 198 1,700 -579 Descending Potomac TRACON
Tue 09:32:19 AM 39.1833 -76.7333 90° East 137 158 1,000 -778 Descending Potomac TRACON

Login

Don't have an account? Register now (free) for customized features, flight alerts, and more!